createdAt,value
2022-10-13T00:01:51.015Z,13.60
2022-10-13T00:04:18.384Z,13.70
2022-10-13T00:06:45.769Z,13.60
2022-10-13T00:12:39.960Z,13.50
2022-10-13T00:15:12.275Z,13.40
2022-10-13T00:17:40.482Z,13.30
2022-10-13T00:20:09.886Z,13.30
2022-10-13T00:22:37.579Z,13.30
2022-10-13T00:25:05.483Z,13.20
2022-10-13T00:27:32.828Z,13.20
2022-10-13T00:30:00.232Z,13.20
2022-10-13T00:32:27.689Z,13.30
2022-10-13T00:34:55.075Z,13.20
2022-10-13T00:37:22.451Z,13.10
2022-10-13T00:39:49.927Z,13.00
2022-10-13T00:42:18.252Z,13.10
2022-10-13T00:45:17.422Z,13.00
2022-10-13T00:47:49.952Z,13.10
2022-10-13T00:50:23.767Z,13.10
2022-10-13T00:52:57.187Z,13.10
2022-10-13T00:55:30.856Z,13.00
2022-10-13T00:58:05.234Z,13.00
2022-10-13T01:00:34.347Z,13.00
2022-10-13T01:03:02.698Z,13.00
2022-10-13T01:05:30.999Z,12.90
2022-10-13T01:08:00.975Z,12.80
2022-10-13T01:10:57.315Z,12.80
2022-10-13T01:13:38.033Z,12.90
2022-10-13T01:16:21.052Z,12.90
2022-10-13T01:18:52.775Z,13.00
2022-10-13T01:21:43.522Z,12.90
2022-10-13T01:24:32.409Z,12.70
2022-10-13T01:27:14.003Z,12.80
2022-10-13T01:30:12.456Z,12.80
2022-10-13T01:33:14.778Z,13.00
2022-10-13T01:36:15.235Z,12.80
2022-10-13T01:38:59.619Z,12.80
2022-10-13T01:41:37.551Z,12.60
2022-10-13T01:44:17.337Z,12.60
2022-10-13T01:46:54.715Z,12.50
2022-10-13T01:49:27.440Z,12.50
2022-10-13T01:52:00.175Z,12.70
2022-10-13T01:54:27.507Z,12.70
2022-10-13T01:56:57.280Z,12.70
2022-10-13T01:59:27.558Z,12.50
2022-10-13T02:02:18.655Z,12.50
2022-10-13T02:05:08.640Z,12.60
2022-10-13T02:07:46.819Z,12.40
2022-10-13T02:10:25.399Z,12.40
2022-10-13T02:12:59.328Z,12.40
2022-10-13T02:15:41.286Z,12.40
2022-10-13T02:18:12.255Z,12.30
2022-10-13T02:20:41.857Z,12.20
2022-10-13T02:23:12.505Z,12.30
2022-10-13T02:25:40.523Z,12.30
2022-10-13T02:28:08.417Z,12.20
2022-10-13T02:30:43.752Z,12.30
2022-10-13T02:33:12.166Z,12.30
2022-10-13T02:35:40.045Z,12.20
2022-10-13T02:38:07.643Z,12.10
2022-10-13T02:40:35.128Z,12.10
2022-10-13T02:43:02.630Z,12.10
2022-10-13T02:45:30.013Z,12.20
2022-10-13T02:47:58.122Z,12.20
2022-10-13T02:50:25.620Z,12.20
2022-10-13T02:52:53.870Z,12.20
2022-10-13T02:55:21.493Z,12.10
2022-10-13T02:57:56.847Z,11.90
2022-10-13T03:00:24.525Z,11.80
2022-10-13T03:02:51.904Z,11.80
2022-10-13T03:05:19.336Z,11.80
2022-10-13T03:07:46.736Z,12.00
2022-10-13T03:10:14.115Z,12.00
2022-10-13T03:12:41.452Z,12.00
2022-10-13T03:15:09.164Z,12.00
2022-10-13T03:17:36.556Z,11.90
2022-10-13T03:20:04.914Z,12.10
2022-10-13T03:22:33.052Z,12.30
2022-10-13T03:25:00.881Z,12.10
2022-10-13T03:27:28.262Z,12.00
2022-10-13T03:29:55.630Z,11.80
2022-10-13T03:32:23.222Z,11.90
2022-10-13T03:34:51.721Z,12.20
2022-10-13T03:37:19.112Z,12.30
2022-10-13T03:39:46.541Z,12.20
2022-10-13T03:42:14.127Z,11.90
2022-10-13T03:44:41.728Z,11.70
2022-10-13T03:47:09.105Z,11.70
2022-10-13T03:49:39.017Z,11.70
2022-10-13T03:52:06.815Z,11.80
2022-10-13T03:54:34.251Z,11.90
2022-10-13T03:57:03.233Z,12.10
2022-10-13T03:59:36.354Z,12.70
2022-10-13T04:02:04.621Z,13.00
2022-10-13T04:04:32.033Z,13.30
2022-10-13T04:06:59.413Z,13.40
2022-10-13T04:09:27.090Z,13.50
2022-10-13T04:11:54.459Z,13.40
2022-10-13T04:14:21.896Z,13.50
2022-10-13T04:16:49.247Z,13.60
2022-10-13T04:19:17.004Z,13.30
2022-10-13T04:21:44.922Z,13.10
2022-10-13T04:24:13.601Z,12.70
2022-10-13T04:26:41.562Z,13.10
2022-10-13T04:29:11.522Z,13.30
2022-10-13T04:31:40.579Z,13.60
2022-10-13T04:34:08.488Z,13.30
2022-10-13T04:36:35.998Z,13.50
2022-10-13T04:39:03.929Z,13.70
2022-10-13T04:41:33.647Z,13.80
2022-10-13T04:44:02.513Z,13.80
2022-10-13T04:46:29.939Z,13.80
2022-10-13T04:48:57.811Z,13.70
2022-10-13T04:51:33.040Z,13.40
2022-10-13T04:54:02.070Z,13.60
2022-10-13T04:56:29.979Z,13.70
2022-10-13T04:59:05.781Z,13.70
2022-10-13T05:01:34.622Z,13.70
2022-10-13T05:04:04.430Z,13.30
2022-10-13T05:06:58.885Z,13.40
2022-10-13T05:09:27.472Z,13.30
2022-10-13T05:11:55.253Z,12.90
2022-10-13T05:14:23.262Z,12.70
2022-10-13T05:16:50.666Z,12.50
2022-10-13T05:19:18.049Z,12.40
2022-10-13T05:21:45.375Z,12.60
2022-10-13T05:24:13.438Z,12.90
2022-10-13T05:26:41.965Z,12.80
2022-10-13T05:29:09.419Z,12.50
2022-10-13T05:31:36.955Z,12.40
2022-10-13T05:34:04.345Z,12.20
2022-10-13T05:36:34.262Z,12.10
2022-10-13T05:39:04.636Z,12.00
2022-10-13T05:41:32.567Z,11.90
2022-10-13T05:44:03.525Z,11.90
2022-10-13T05:46:30.990Z,11.90
2022-10-13T05:48:58.588Z,11.90
2022-10-13T05:51:31.662Z,12.00
2022-10-13T05:54:06.606Z,12.00
2022-10-13T05:56:41.512Z,11.90
2022-10-13T05:59:12.274Z,12.00
2022-10-13T06:01:41.124Z,12.00
2022-10-13T06:04:15.127Z,12.10
2022-10-13T06:06:47.366Z,12.20
2022-10-13T06:09:14.871Z,12.20
2022-10-13T06:11:42.632Z,12.20
2022-10-13T06:14:10.136Z,12.30
2022-10-13T06:16:37.645Z,12.50
2022-10-13T06:19:06.208Z,12.60
2022-10-13T06:21:36.573Z,12.60
2022-10-13T06:24:04.168Z,12.80
2022-10-13T06:26:31.562Z,12.90
2022-10-13T06:28:59.947Z,13.10
2022-10-13T06:31:28.531Z,13.40
2022-10-13T06:33:55.983Z,14.80
2022-10-13T06:36:23.352Z,16.30
2022-10-13T06:38:51.263Z,16.40
2022-10-13T06:41:22.063Z,15.70
2022-10-13T06:43:49.505Z,15.10
2022-10-13T06:46:17.517Z,14.70
2022-10-13T06:48:44.873Z,14.70
2022-10-13T06:51:12.295Z,14.60
2022-10-13T06:53:39.699Z,14.70
2022-10-13T06:56:07.903Z,14.80
2022-10-13T06:58:36.358Z,14.80
2022-10-13T07:01:05.522Z,14.90
2022-10-13T07:03:33.166Z,15.00
2022-10-13T07:06:02.291Z,15.20
2022-10-13T07:08:29.789Z,15.30
2022-10-13T07:10:57.732Z,15.40
2022-10-13T07:13:25.363Z,15.50
2022-10-13T07:15:52.744Z,15.60
2022-10-13T07:18:20.197Z,15.80
2022-10-13T07:20:47.582Z,15.90
2022-10-13T07:23:14.988Z,16.00
2022-10-13T07:25:42.398Z,16.10
2022-10-13T07:28:09.782Z,16.20
2022-10-13T07:30:39.455Z,16.40
2022-10-13T07:33:07.055Z,16.50
2022-10-13T07:35:34.621Z,16.50
2022-10-13T07:38:02.005Z,16.70
2022-10-13T07:40:29.461Z,16.80
2022-10-13T07:42:57.605Z,17.00
2022-10-13T07:45:25.480Z,17.10
2022-10-13T07:47:52.918Z,17.20
2022-10-13T07:50:20.679Z,17.30
2022-10-13T07:52:48.197Z,17.20
2022-10-13T07:55:15.782Z,17.40
2022-10-13T07:57:43.255Z,17.50
2022-10-13T08:00:11.246Z,17.60
2022-10-13T08:02:41.526Z,17.70
2022-10-13T08:05:09.112Z,17.70
2022-10-13T08:07:39.221Z,17.90
2022-10-13T08:10:07.349Z,17.80
2022-10-13T08:12:38.258Z,17.90
2022-10-13T08:15:07.118Z,17.90
2022-10-13T08:17:34.554Z,17.80
2022-10-13T08:20:01.905Z,18.00
2022-10-13T08:28:36.336Z,18.20
2022-10-13T08:31:04.335Z,18.20
2022-10-13T08:33:31.733Z,18.20
2022-10-13T08:35:59.098Z,18.30
2022-10-13T08:38:27.071Z,18.30
2022-10-13T08:40:54.519Z,18.30
2022-10-13T08:43:24.416Z,18.20
2022-10-13T08:45:56.600Z,18.40
2022-10-13T08:48:30.076Z,18.60
2022-10-13T08:51:01.852Z,18.60
2022-10-13T08:53:34.332Z,18.60
2022-10-13T08:56:15.099Z,18.70
2022-10-13T08:58:43.462Z,18.70
2022-10-13T09:01:18.176Z,18.90
2022-10-13T09:03:48.242Z,19.00
2022-10-13T09:06:27.162Z,19.00
2022-10-13T09:09:03.761Z,19.00
2022-10-13T09:11:37.929Z,19.10
2022-10-13T09:14:08.126Z,19.30
2022-10-13T09:16:39.366Z,19.20
2022-10-13T09:19:36.651Z,19.20
2022-10-13T09:22:27.938Z,19.30
2022-10-13T09:25:07.490Z,19.30
2022-10-13T09:27:55.025Z,19.40
2022-10-13T09:30:40.676Z,19.50
2022-10-13T09:33:13.739Z,19.60
2022-10-13T09:35:43.029Z,19.50
2022-10-13T09:38:25.113Z,19.80
2022-10-13T09:41:13.110Z,19.60
2022-10-13T09:43:46.614Z,19.60
2022-10-13T09:46:36.166Z,19.60
2022-10-13T09:49:23.111Z,19.70
2022-10-13T09:51:50.987Z,19.80
2022-10-13T09:54:28.533Z,19.70
2022-10-13T09:57:11.211Z,19.90
2022-10-13T09:59:48.433Z,20.00
2022-10-13T10:02:38.363Z,19.90
2022-10-13T10:05:16.881Z,20.00
2022-10-13T10:07:47.154Z,20.10
2022-10-13T10:10:35.255Z,20.10
2022-10-13T10:13:05.739Z,20.20
2022-10-13T10:15:58.441Z,20.20
2022-10-13T10:18:35.437Z,20.20
2022-10-13T10:21:06.497Z,20.30
2022-10-13T10:23:48.862Z,20.30
2022-10-13T10:26:43.052Z,20.40
2022-10-13T10:29:23.915Z,20.40
2022-10-13T10:32:00.100Z,20.40
2022-10-13T10:34:33.116Z,20.50
2022-10-13T10:37:25.425Z,20.70
2022-10-13T10:40:22.172Z,20.80
2022-10-13T10:42:58.591Z,20.90
2022-10-13T10:45:35.731Z,20.90
2022-10-13T10:48:26.982Z,20.90
2022-10-13T10:50:54.796Z,20.90
2022-10-13T10:53:56.731Z,20.70
2022-10-13T10:56:40.823Z,20.70
2022-10-13T10:59:29.628Z,21.00
2022-10-13T11:02:27.694Z,21.30
2022-10-13T11:04:55.320Z,21.60
2022-10-13T11:07:22.707Z,21.60
2022-10-13T11:09:50.569Z,21.60
2022-10-13T11:12:21.489Z,21.50
2022-10-13T11:14:55.360Z,21.40
2022-10-13T11:17:30.427Z,21.40
2022-10-13T11:19:58.865Z,21.40
2022-10-13T11:22:28.559Z,21.70
2022-10-13T11:24:58.879Z,21.80
2022-10-13T11:27:46.354Z,22.20
2022-10-13T11:30:44.038Z,22.20
2022-10-13T11:33:39.473Z,22.10
2022-10-13T11:36:39.976Z,22.20
2022-10-13T11:39:28.706Z,22.00
2022-10-13T11:42:33.508Z,22.10
2022-10-13T11:45:32.265Z,22.10
2022-10-13T11:48:26.505Z,22.20
2022-10-13T11:51:15.421Z,22.30
2022-10-13T11:53:53.546Z,22.40
2022-10-13T11:56:39.392Z,22.40
2022-10-13T11:59:23.604Z,22.50
2022-10-13T12:01:55.716Z,22.30
2022-10-13T12:04:25.207Z,22.20
2022-10-13T12:06:57.233Z,22.10
2022-10-13T12:09:25.030Z,22.30
2022-10-13T12:11:58.688Z,22.50
2022-10-13T12:14:40.807Z,22.50
2022-10-13T12:17:27.141Z,22.30
2022-10-13T12:20:00.529Z,22.20
2022-10-13T12:22:29.482Z,22.10
2022-10-13T12:25:07.040Z,22.20
2022-10-13T12:27:52.536Z,22.20
2022-10-13T12:30:32.015Z,22.10
2022-10-13T12:33:01.137Z,22.20
2022-10-13T12:35:33.834Z,22.10
2022-10-13T12:38:03.889Z,22.40
2022-10-13T12:40:34.647Z,22.40
2022-10-13T12:43:05.130Z,22.20
2022-10-13T12:45:34.895Z,22.20
2022-10-13T12:48:02.372Z,22.10
2022-10-13T12:50:37.868Z,22.20
2022-10-13T12:53:10.436Z,22.20
2022-10-13T12:55:59.009Z,22.00
2022-10-13T12:58:36.853Z,22.20
2022-10-13T13:01:21.236Z,22.10
2022-10-13T13:03:56.125Z,22.10
2022-10-13T13:06:32.556Z,22.20
2022-10-13T13:09:21.797Z,22.30
2022-10-13T13:12:02.354Z,22.20
2022-10-13T13:14:37.582Z,22.30
2022-10-13T13:17:08.559Z,22.10
2022-10-13T13:19:36.647Z,22.30
2022-10-13T13:22:05.867Z,22.40
2022-10-13T13:24:41.363Z,22.40
2022-10-13T13:27:26.657Z,22.40
2022-10-13T13:29:55.004Z,22.20
2022-10-13T13:32:25.188Z,22.50
2022-10-13T13:34:52.606Z,22.70
2022-10-13T13:37:34.171Z,22.70
2022-10-13T13:40:02.177Z,22.50
2022-10-13T13:42:29.783Z,22.50
2022-10-13T13:44:57.226Z,22.40
2022-10-13T13:47:27.313Z,22.40
2022-10-13T13:49:57.192Z,22.30
2022-10-13T13:52:25.662Z,22.30
2022-10-13T13:54:53.108Z,22.20
2022-10-13T13:57:20.900Z,22.30
2022-10-13T13:59:48.557Z,22.40
2022-10-13T14:02:21.252Z,22.50
2022-10-13T14:04:48.789Z,22.50
2022-10-13T14:07:17.917Z,22.60
2022-10-13T14:09:46.739Z,22.50
2022-10-13T14:12:14.177Z,22.60
2022-10-13T14:14:41.579Z,22.50
2022-10-13T14:17:10.582Z,22.50
2022-10-13T14:19:37.995Z,22.30
2022-10-13T14:22:20.057Z,22.10
2022-10-13T14:24:48.406Z,22.10
2022-10-13T14:27:15.861Z,22.10
2022-10-13T14:29:43.475Z,22.00
2022-10-13T14:32:13.591Z,22.00
2022-10-13T14:34:40.988Z,22.10
2022-10-13T14:37:08.754Z,22.20
2022-10-13T14:39:36.225Z,22.30
2022-10-13T14:42:03.865Z,22.20
2022-10-13T14:44:31.269Z,22.00
2022-10-13T14:46:58.615Z,21.90
2022-10-13T14:49:26.372Z,21.90
2022-10-13T14:51:53.969Z,21.80
2022-10-13T14:54:21.618Z,21.70
2022-10-13T14:56:49.065Z,21.80
2022-10-13T14:59:16.591Z,21.60
2022-10-13T15:01:46.125Z,21.50
2022-10-13T15:04:13.497Z,21.50
2022-10-13T15:06:40.904Z,21.50
2022-10-13T15:11:41.594Z,21.30
2022-10-13T15:14:09.890Z,21.20
2022-10-13T15:16:37.976Z,21.20
2022-10-13T15:19:05.915Z,21.20
2022-10-13T15:21:33.372Z,21.10
2022-10-13T15:24:01.881Z,21.10
2022-10-13T15:26:29.689Z,21.20
2022-10-13T15:28:57.199Z,21.10
2022-10-13T15:31:24.806Z,21.10
2022-10-13T15:33:53.730Z,21.10
2022-10-13T15:36:22.435Z,21.10
2022-10-13T15:38:51.145Z,21.00
2022-10-13T15:41:19.826Z,20.90
2022-10-13T15:43:47.914Z,20.90
2022-10-13T15:46:21.641Z,20.90
2022-10-13T15:48:50.724Z,20.80
2022-10-13T15:51:21.146Z,20.70
2022-10-13T15:53:49.033Z,20.80
2022-10-13T15:56:17.076Z,20.80
2022-10-13T15:58:45.480Z,20.80
2022-10-13T16:01:14.031Z,20.70
2022-10-13T16:03:41.554Z,20.70
2022-10-13T16:06:11.080Z,20.60
2022-10-13T16:08:39.916Z,20.40
2022-10-13T16:11:11.056Z,20.50
2022-10-13T16:13:39.533Z,20.40
2022-10-13T16:16:07.721Z,20.50
2022-10-13T16:18:37.353Z,20.40
2022-10-13T16:21:31.061Z,20.40
2022-10-13T16:23:59.533Z,20.10
2022-10-13T16:26:27.925Z,19.90
2022-10-13T16:28:56.790Z,19.60
2022-10-13T16:31:24.431Z,19.30
2022-10-13T16:33:51.842Z,19.20
2022-10-13T16:36:20.300Z,19.40
2022-10-13T16:38:53.003Z,19.60
2022-10-13T16:41:20.963Z,19.80
2022-10-13T16:43:48.785Z,19.80
2022-10-13T16:46:19.181Z,19.60
2022-10-13T16:48:47.547Z,19.60
2022-10-13T16:51:32.891Z,19.70
2022-10-13T16:54:04.255Z,19.60
2022-10-13T16:56:32.918Z,19.50
2022-10-13T16:59:02.513Z,19.60
2022-10-13T17:01:31.608Z,19.60
2022-10-13T17:03:59.619Z,19.60
2022-10-13T17:06:28.972Z,19.60
2022-10-13T17:09:00.626Z,19.60
2022-10-13T17:11:30.239Z,19.60
2022-10-13T17:13:58.995Z,19.60
2022-10-13T17:16:31.410Z,19.50
2022-10-13T17:18:59.506Z,19.60
2022-10-13T17:21:47.240Z,19.60
2022-10-13T17:24:16.830Z,19.60
2022-10-13T17:26:44.441Z,19.50
2022-10-13T17:29:12.027Z,19.50
2022-10-13T17:31:39.442Z,19.50
2022-10-13T17:34:09.202Z,19.50
2022-10-13T17:36:36.574Z,19.50
2022-10-13T17:39:09.573Z,19.50
2022-10-13T17:41:40.743Z,19.50
2022-10-13T17:44:08.205Z,19.50
2022-10-13T17:46:37.942Z,19.50
2022-10-13T17:49:09.565Z,19.40
2022-10-13T17:51:37.051Z,19.40
2022-10-13T17:54:05.160Z,19.30
2022-10-13T17:56:32.874Z,19.20
2022-10-13T17:59:01.984Z,19.10
2022-10-13T18:01:32.959Z,19.10
2022-10-13T18:04:03.697Z,19.10
2022-10-13T18:06:37.995Z,19.00
2022-10-13T18:09:12.181Z,18.90
2022-10-13T18:11:41.771Z,18.90
2022-10-13T18:14:10.830Z,18.80
2022-10-13T18:16:42.586Z,18.60
2022-10-13T18:19:13.721Z,18.50
2022-10-13T18:21:41.268Z,18.30
2022-10-13T18:24:09.961Z,17.80
2022-10-13T18:26:37.578Z,17.40
2022-10-13T18:29:06.877Z,17.20
2022-10-13T18:31:36.681Z,17.00
2022-10-13T18:34:06.565Z,16.80
2022-10-13T18:36:47.860Z,16.50
2022-10-13T18:39:18.093Z,16.40
2022-10-13T18:41:49.927Z,16.50
2022-10-13T18:44:17.609Z,16.80
2022-10-13T18:46:45.314Z,17.20
2022-10-13T18:49:14.517Z,16.80
2022-10-13T18:51:44.235Z,16.60
2022-10-13T18:54:12.039Z,16.30
2022-10-13T18:56:39.606Z,16.10
2022-10-13T18:59:08.935Z,16.10
2022-10-13T19:01:38.209Z,16.00
2022-10-13T19:04:06.623Z,15.80
2022-10-13T19:06:35.501Z,15.70
2022-10-13T19:09:06.995Z,15.70
2022-10-13T19:11:37.442Z,15.60
2022-10-13T19:14:07.058Z,15.50
2022-10-13T19:16:37.423Z,15.40
2022-10-13T19:19:05.845Z,15.40
2022-10-13T19:21:33.537Z,15.40
2022-10-13T19:24:01.665Z,15.30
2022-10-13T19:26:32.297Z,15.20
2022-10-13T19:29:03.614Z,15.20
2022-10-13T19:31:32.343Z,15.10
2022-10-13T19:34:01.824Z,15.20
2022-10-13T19:36:33.798Z,15.30
2022-10-13T19:39:07.491Z,15.40
2022-10-13T19:41:35.176Z,15.90
2022-10-13T19:44:03.109Z,16.00
2022-10-13T19:46:44.634Z,16.10
2022-10-13T19:49:13.498Z,16.10
2022-10-13T19:51:45.946Z,15.90
2022-10-13T19:54:14.078Z,15.80
2022-10-13T19:56:47.526Z,15.50
2022-10-13T19:59:15.595Z,15.50
2022-10-13T20:01:43.603Z,15.60
2022-10-13T20:04:15.500Z,15.80
2022-10-13T20:06:44.680Z,15.70
2022-10-13T20:09:12.506Z,15.60
2022-10-13T20:11:40.090Z,15.40
2022-10-13T20:14:07.604Z,15.30
2022-10-13T20:16:36.652Z,15.20
2022-10-13T20:19:04.287Z,15.20
2022-10-13T20:21:31.860Z,15.10
2022-10-13T20:23:59.463Z,15.10
2022-10-13T20:26:27.182Z,15.20
2022-10-13T20:28:55.234Z,15.10
2022-10-13T20:31:24.004Z,15.10
2022-10-13T20:33:55.992Z,15.00
2022-10-13T20:36:25.374Z,14.90
2022-10-13T20:38:53.095Z,15.10
2022-10-13T20:41:24.811Z,15.10
2022-10-13T20:43:54.082Z,15.10
2022-10-13T20:46:23.682Z,15.00
2022-10-13T20:49:22.146Z,15.00
2022-10-13T20:51:40.852Z,15.00
2022-10-13T20:54:08.846Z,15.00
2022-10-13T20:56:36.753Z,14.90
2022-10-13T20:59:05.975Z,14.90
2022-10-13T21:01:34.489Z,15.00
2022-10-13T21:04:02.028Z,15.00
2022-10-13T21:06:29.572Z,14.90
2022-10-13T21:08:59.154Z,14.80
2022-10-13T21:11:26.625Z,14.80
2022-10-13T21:13:54.110Z,14.80
2022-10-13T21:16:27.133Z,14.70
2022-10-13T21:18:56.198Z,14.80
2022-10-13T21:21:34.835Z,14.90
2022-10-13T21:24:05.006Z,14.90
2022-10-13T21:26:33.274Z,14.70
2022-10-13T21:29:01.723Z,14.60
2022-10-13T21:31:29.886Z,14.60
2022-10-13T21:33:57.997Z,14.50
2022-10-13T21:36:27.764Z,14.40
2022-10-13T21:38:58.503Z,14.30
2022-10-13T21:41:26.854Z,14.40
2022-10-13T21:43:54.624Z,14.40
2022-10-13T21:46:27.867Z,14.50
2022-10-13T21:48:59.694Z,14.60
2022-10-13T21:51:30.048Z,14.80
2022-10-13T21:54:00.302Z,14.90
2022-10-13T21:56:31.510Z,14.70
2022-10-13T21:59:00.236Z,14.50
2022-10-13T22:01:28.052Z,14.40
2022-10-13T22:04:00.874Z,14.50
2022-10-13T22:06:30.230Z,14.50
2022-10-13T22:08:59.130Z,14.50
2022-10-13T22:11:30.090Z,14.40
2022-10-13T22:13:58.150Z,14.40
2022-10-13T22:16:29.304Z,14.50
2022-10-13T22:18:57.877Z,14.40
2022-10-13T22:21:31.086Z,14.20
2022-10-13T22:24:01.604Z,14.10
2022-10-13T22:26:30.698Z,14.10
2022-10-13T22:28:59.748Z,14.10
2022-10-13T22:31:27.738Z,14.10
2022-10-13T22:33:55.349Z,14.10
2022-10-13T22:36:24.349Z,14.00
2022-10-13T22:38:54.284Z,13.90
2022-10-13T22:41:22.539Z,13.90
2022-10-13T22:43:55.430Z,13.90
2022-10-13T22:46:26.237Z,13.90
2022-10-13T22:48:54.255Z,13.80
2022-10-13T22:51:24.001Z,13.80
2022-10-13T22:53:51.746Z,13.80
2022-10-13T22:56:24.267Z,13.70
2022-10-13T22:59:02.391Z,13.70
2022-10-13T23:01:29.839Z,13.70
2022-10-13T23:03:58.557Z,13.80
2022-10-13T23:06:30.826Z,13.80
2022-10-13T23:09:02.548Z,13.80
2022-10-13T23:11:29.975Z,13.60
2022-10-13T23:13:57.641Z,13.60
2022-10-13T23:16:25.991Z,13.60
2022-10-13T23:18:54.205Z,13.50
2022-10-13T23:21:27.253Z,13.50
2022-10-13T23:23:59.729Z,13.70
2022-10-13T23:26:28.521Z,13.60
2022-10-13T23:28:57.189Z,13.50
2022-10-13T23:31:26.151Z,13.30
2022-10-13T23:33:54.208Z,13.30
2022-10-13T23:36:24.053Z,13.30
2022-10-13T23:39:00.067Z,13.40
2022-10-13T23:41:28.110Z,13.50
2022-10-13T23:43:55.665Z,13.50
2022-10-13T23:46:24.863Z,13.40
2022-10-13T23:48:52.643Z,13.30
2022-10-13T23:51:23.138Z,13.20
2022-10-13T23:53:51.204Z,13.20
2022-10-13T23:56:19.153Z,13.10
2022-10-13T23:58:46.607Z,13.00
